Chadstone Weather > Observations for 02/08/21

Select Day:



Observations
Time Temp Hum DP Wind Gust Dir Rain >9am Press
C % C kph kph mm hPa
00:00 8.0 79 4.6 1.2 5.0 N 0.0 1003.4
00:10 8.0 79 4.6 1.7 5.0 N 0.0 1003.4
00:20 8.1 79 4.7 2.2 6.1 N 0.0 1003.5
00:30 8.2 79 4.8 2.9 6.1 N 0.0 1003.5
00:40 8.2 79 4.8 2.7 5.0 N 0.0 1003.6
00:50 8.2 78 4.6 3.1 6.1 NNW 0.0 1003.5
01:00 8.2 78 4.6 2.7 6.1 NNW 0.0 1003.5
01:10 8.2 78 4.6 1.9 6.1 N 0.0 1003.4
01:20 8.1 78 4.5 1.3 5.0 NNW 0.0 1003.6
01:30 8.0 78 4.4 1.0 6.1 N 0.0 1003.6
01:40 7.9 79 4.5 1.2 6.1 N 0.0 1003.7
01:50 7.8 79 4.4 2.2 6.1 NNW 0.0 1003.8
02:00 7.8 79 4.4 1.8 5.0 N 0.0 1003.8
02:10 7.8 80 4.6 2.7 6.1 NNW 0.0 1003.9
02:20 7.8 80 4.6 1.8 5.0 N 0.0 1003.8
02:30 7.8 79 4.4 1.7 5.0 N 0.0 1003.8
02:40 7.7 79 4.3 2.2 5.0 N 0.0 1003.7
02:50 7.6 79 4.2 1.6 6.1 N 0.0 1003.8
03:00 7.6 80 4.4 2.0 5.0 N 0.0 1003.9
03:10 7.5 80 4.3 2.6 5.0 N 0.0 1003.8
03:20 7.4 80 4.2 1.8 6.1 N 0.0 1003.9
03:30 7.4 80 4.2 2.6 6.1 NNW 0.0 1004.1
03:40 7.4 80 4.2 2.4 6.1 N 0.0 1003.9
03:50 7.4 81 4.4 2.0 6.1 N 0.0 1003.9
04:00 7.4 81 4.4 2.5 7.2 N 0.0 1004.0
04:10 7.5 81 4.5 4.2 7.2 N 0.0 1004.1
04:20 7.6 81 4.6 4.1 7.2 NNE 0.0 1004.1
04:30 7.6 81 4.6 3.2 8.6 N 0.0 1004.2
04:40 7.6 80 4.4 3.0 7.2 N 0.0 1004.3
04:50 7.5 80 4.3 4.1 8.6 NNE 0.0 1004.3
05:00 7.5 80 4.3 4.2 8.6 NE 0.0 1004.3
05:10 7.6 80 4.4 4.4 8.6 N 0.0 1004.3
05:20 7.6 80 4.4 2.7 6.1 N 0.0 1004.4
05:30 7.5 80 4.3 3.1 7.2 N 0.0 1004.4
05:40 7.4 80 4.2 2.8 6.1 N 0.0 1004.4
05:50 7.4 80 4.2 3.6 12.2 NNE 0.0 1004.4
06:00 7.4 80 4.2 4.9 12.2 N 0.0 1004.3
06:10 7.3 80 4.1 4.2 9.7 N 0.0 1004.4
06:20 7.2 80 4.0 2.7 7.2 N 0.0 1004.4
06:30 7.3 81 4.3 4.8 11.2 NNE 0.0 1004.4
06:40 7.3 81 4.3 5.0 12.2 N 0.0 1004.6
06:50 7.4 81 4.4 6.5 11.2 N 0.0 1004.6
07:00 7.4 81 4.4 5.8 12.2 NNE 0.0 1004.6
07:10 7.5 81 4.5 6.5 12.2 NE 0.0 1004.8
07:20 7.5 81 4.5 7.3 13.3 NNE 0.0 1005.0
07:30 7.6 81 4.6 6.7 15.8 NNE 0.0 1005.0
07:40 7.7 81 4.6 6.4 12.2 NNE 0.0 1005.2
07:50 7.8 81 4.7 6.0 12.2 NE 0.0 1005.2
08:00 8.1 79 4.7 6.9 14.8 NNE 0.0 1005.2
08:10 8.3 79 4.9 5.1 13.3 NNE 0.0 1005.4
08:20 8.5 79 5.1 8.1 13.3 NNE 0.0 1005.2
08:30 8.9 78 5.3 9.6 15.8 NNE 0.0 1005.0
08:40 9.4 76 5.4 11.6 20.9 N 0.0 1005.1
08:50 9.8 75 5.6 9.9 18.4 SW 0.0 1005.0
09:00 10.2 74 5.8 8.2 20.9 NNW 0.0 1004.9
09:10 10.4 73 5.8 10.2 17.3 NNW 0.0 1004.9
09:20 10.8 72 6.0 9.2 18.4 NNW 0.0 1004.9
09:30 11.1 70 5.8 9.9 20.9 N 0.0 1004.7
09:40 11.4 69 5.9 12.3 24.5 NW 0.0 1004.5
09:50 11.7 68 6.0 9.9 17.3 NNW 0.0 1004.4
10:00 12.0 67 6.1 9.4 24.5 NNW 0.0 1004.3
10:10 12.2 65 5.8 11.3 19.4 N 0.0 1004.2
10:20 12.6 66 6.4 9.7 22.0 N 0.0 1004.0
10:30 13.1 65 6.7 10.3 25.6 NNW 0.0 1003.8
10:40 13.3 65 6.9 12.5 22.0 NNW 0.0 1003.5
10:50 13.8 64 7.1 13.4 28.1 NNE 0.0 1003.4
11:00 14.2 62 7.0 13.2 28.1 NNW 0.0 1003.2
11:10 14.3 60 6.6 14.0 30.6 NW 0.0 1002.9
11:20 14.5 59 6.6 17.6 31.7 NNW 0.0 1002.8
11:30 14.6 57 6.2 19.7 39.2 NNW 0.0 1002.8
11:40 14.6 56 5.9 17.2 30.6 NNW 0.0 1002.7
11:50 14.7 56 6.0 16.9 34.2 NNW 0.0 1002.5
12:00 15.0 55 6.0 17.5 34.2 NNW 0.0 1002.3
12:10 15.1 54 5.9 17.8 39.2 NNW 0.0 1001.7
12:20 15.0 53 5.5 19.2 39.2 NNW 0.0 1001.6
12:30 15.4 54 6.1 14.9 34.2 NNW 0.0 1001.4
12:40 15.2 53 5.7 19.5 34.2 NNW 0.0 1001.1
12:50 15.2 54 6.0 18.6 33.1 NNW 0.0 1000.8
13:00 15.4 53 5.9 14.0 31.7 N 0.0 1000.7
13:10 15.5 53 6.0 17.5 34.2 NW 0.0 1000.6
13:20 15.4 53 5.9 18.3 31.7 NNW 0.0 1000.4
13:30 15.4 53 5.9 16.1 31.7 NNW 0.0 1000.3
13:40 15.4 53 5.9 14.7 30.6 N 0.0 1000.2
13:50 15.0 53 5.5 15.0 27.0 N 0.0 1000.0
14:00 15.2 51 5.1 14.3 30.6 NNW 0.0 999.8
14:10 15.3 50 4.9 18.2 30.6 N 0.0 999.7
14:20 15.4 49 4.7 16.4 29.5 NNW 0.0 999.6
14:30 15.6 46 4.0 17.9 33.1 NNW 0.0 999.6
14:40 15.7 46 4.1 14.5 28.1 NNW 0.0 999.8
14:50 15.9 47 4.6 12.7 29.5 NNW 0.0 999.8
15:00 15.6 45 3.7 17.7 35.6 N 0.0 999.8
15:10 15.5 45 3.6 16.1 29.5 NNW 0.0 1000.0
15:20 15.5 45 3.6 15.7 29.5 N 0.0 999.8
15:30 15.4 44 3.2 15.4 28.1 NNW 0.0 999.8
15:40 15.5 44 3.3 14.2 25.6 N 0.0 999.6
15:50 15.5 45 3.6 12.4 28.1 NNE 0.0 999.7
16:00 15.3 45 3.4 13.2 23.4 NNW 0.0 999.5
16:10 15.2 45 3.4 10.8 24.5 NNE 0.0 999.4
16:20 15.0 45 3.2 12.3 23.4 NNW 0.0 999.5
16:30 14.9 46 3.4 14.5 25.6 NW 0.0 999.5
16:40 14.7 47 3.5 12.5 22.0 NNE 0.0 999.3
16:50 14.6 46 3.1 10.7 20.9 N 0.0 999.3
17:00 14.4 47 3.2 11.2 23.4 NNE 0.0 999.2
17:10 14.3 48 3.4 10.0 20.9 N 0.0 999.2
17:20 14.1 48 3.3 10.0 20.9 NW 0.0 999.2
17:30 13.9 50 3.7 10.2 22.0 N 0.0 999.0
17:40 13.8 50 3.6 10.7 22.0 N 0.0 998.9
17:50 13.6 51 3.7 9.3 19.4 NNW 0.0 998.7
18:00 13.5 52 3.8 8.8 18.4 NNW 0.0 998.9
18:10 13.3 52 3.7 10.4 23.4 N 0.0 998.8
18:20 13.2 53 3.8 12.2 20.9 N 0.0 998.5
18:30 13.1 54 4.0 7.8 18.4 NNW 0.0 998.6
18:40 12.8 53 3.5 5.8 12.2 NW 0.0 998.4
18:50 12.6 54 3.5 5.5 9.7 N 0.0 998.4
19:00 12.4 54 3.4 4.7 9.7 NNW 0.0 998.4
19:10 12.2 55 3.4 4.5 9.7 N 0.0 998.4
19:20 12.1 55 3.3 2.0 7.2 N 0.0 998.3
19:30 11.6 58 3.6 0.2 3.6 N 0.0 998.2
19:40 11.2 60 3.7 0.1 2.5 NNW 0.0 998.1
19:50 10.7 63 3.9 0.4 2.5 N 0.0 998.1
20:00 10.5 63 3.8 0.2 2.5 N 0.0 998.2
20:10 10.2 64 3.7 1.0 6.1 N 0.0 998.2
20:20 10.4 65 4.1 5.0 11.2 N 0.0 998.0
20:30 10.7 63 3.9 6.3 13.3 NNE 0.0 997.6
20:40 10.9 62 3.9 5.1 11.2 N 0.0 997.7
20:50 11.0 59 3.3 5.6 13.3 N 0.0 997.5
21:00 11.0 58 3.1 6.9 13.3 N 0.0 997.6
21:10 11.0 58 3.1 6.2 13.3 N 0.0 997.5
21:20 11.0 58 3.1 5.3 11.2 NNW 0.0 997.5
21:30 11.0 57 2.8 6.7 14.8 N 0.0 997.3
21:40 11.1 56 2.7 8.3 17.3 N 0.0 997.3
21:50 11.4 56 2.9 8.1 19.4 N 0.0 997.4
22:00 11.5 56 3.0 9.3 23.4 N 0.0 997.5
22:10 11.6 56 3.1 6.8 14.8 NNE 0.0 997.5
22:20 11.6 56 3.1 4.8 12.2 N 0.0 997.5
22:30 11.6 56 3.1 6.7 13.3 N 0.0 997.6
22:40 11.6 56 3.1 5.8 12.2 NNW 0.0 997.6
22:50 11.7 57 3.5 7.2 17.3 NNW 0.0 997.7
23:00 11.7 58 3.7 6.3 11.2 NNW 0.0 997.5
23:10 11.6 62 4.6 5.4 13.3 NNW 0.0 997.3
23:20 11.5 63 4.7 6.9 17.3 NNW 0.0 996.7
23:30 11.3 64 4.7 6.5 12.2 NNE 0.3 996.8
23:40 11.3 66 5.2 6.7 12.2 N 0.3 996.5
23:50 11.2 67 5.3 7.5 17.3 NNE 0.3 996.3